Provo, South Dakota
Current Conditions -  °F | °C
As of 3:53 AM on Friday 31 Oct 2014 (Local Time) from KCUT Reporting Station
Haze Haze  
Wind Chill: 27°   Ceiling: 200
Heat Index: 27°   Visibility: 0.75mi
Dew Point: 25°   Wind: 0mph
Humidity: 92%   Direction: NA
Pressure: 30.36"   Gusts: NA
Location:  43.19°N, 103.82°W
Report Text: KCUT 310953Z AUTO 00000KT 3/4SM BR VV002 M03/M04 A3036 RMK AO2 SLP292 I1000 T10281039
Loading
Personal Weather Stations






























Interactive Weather Map
Tropical Storm Tracking
New forecast layout! Learn more

10-Day Weather Forecast

Advertisements
Track Severe Weather on mobile